createdAt,value
2019-01-24T00:00:49.791Z,56.81
2019-01-24T00:03:15.950Z,56.00
2019-01-24T00:05:42.157Z,56.79
2019-01-24T00:08:08.324Z,55.73
2019-01-24T00:10:34.492Z,56.01
2019-01-24T00:13:00.687Z,56.58
2019-01-24T00:15:26.852Z,55.96
2019-01-24T00:17:53.467Z,56.49
2019-01-24T00:20:19.758Z,57.44
2019-01-24T00:22:46.032Z,57.80
2019-01-24T00:25:12.593Z,56.62
2019-01-24T00:27:38.784Z,56.96
2019-01-24T00:30:13.005Z,57.78
2019-01-24T00:32:39.170Z,58.16
2019-01-24T00:35:06.571Z,56.70
2019-01-24T00:37:32.728Z,56.22
2019-01-24T00:39:58.891Z,57.74
2019-01-24T00:42:25.082Z,57.68
2019-01-24T00:44:51.237Z,58.10
2019-01-24T00:47:17.505Z,58.31
2019-01-24T00:49:43.691Z,57.76
2019-01-24T00:52:09.853Z,58.36
2019-01-24T00:54:36.019Z,56.30
2019-01-24T00:57:02.250Z,58.15
2019-01-24T00:59:28.503Z,58.34
2019-01-24T01:01:54.660Z,58.87
2019-01-24T01:04:20.855Z,57.09
2019-01-24T01:06:47.020Z,56.53
2019-01-24T01:09:13.188Z,57.84
2019-01-24T01:11:39.389Z,58.56
2019-01-24T01:14:05.701Z,57.42
2019-01-24T01:16:31.863Z,57.27
2019-01-24T01:18:58.155Z,56.41
2019-01-24T01:21:24.316Z,55.97
2019-01-24T01:23:50.476Z,56.80
2019-01-24T01:26:16.671Z,56.08
2019-01-24T01:28:42.931Z,56.64
2019-01-24T01:31:09.092Z,55.67
2019-01-24T01:33:35.286Z,55.90
2019-01-24T01:36:01.552Z,55.15
2019-01-24T01:38:27.816Z,55.30
2019-01-24T01:40:54.023Z,56.00
2019-01-24T01:43:20.193Z,55.29
2019-01-24T01:45:46.351Z,55.42
2019-01-24T01:48:12.543Z,57.12
2019-01-24T01:50:39.247Z,58.44
2019-01-24T01:53:05.408Z,57.44
2019-01-24T01:55:31.595Z,58.74
2019-01-24T01:57:57.758Z,58.00
2019-01-24T02:00:24.527Z,57.45
2019-01-24T02:02:50.727Z,57.93
2019-01-24T02:05:16.901Z,57.71
2019-01-24T02:07:43.151Z,58.63
2019-01-24T02:10:15.343Z,56.23
2019-01-24T02:12:42.308Z,55.34
2019-01-24T02:15:10.981Z,55.41
2019-01-24T02:17:37.178Z,56.16
2019-01-24T02:20:06.949Z,55.26
2019-01-24T02:22:33.116Z,55.61
2019-01-24T02:24:59.311Z,55.75
2019-01-24T02:27:25.471Z,58.36
2019-01-24T02:29:51.636Z,57.35
2019-01-24T02:32:17.834Z,57.44
2019-01-24T02:34:49.650Z,57.95
2019-01-24T02:37:12.055Z,58.29
2019-01-24T02:39:38.245Z,57.52
2019-01-24T02:42:04.409Z,58.59
2019-01-24T02:44:30.575Z,57.72
2019-01-24T02:46:56.782Z,57.94
2019-01-24T02:49:22.951Z,58.52
2019-01-24T02:51:49.114Z,58.03
2019-01-24T02:54:15.306Z,57.44
2019-01-24T02:56:41.467Z,58.35
2019-01-24T02:59:07.729Z,56.89
2019-01-24T03:01:34.031Z,56.75
2019-01-24T03:04:00.190Z,56.98
2019-01-24T03:06:26.349Z,56.45
2019-01-24T03:08:52.563Z,57.95
2019-01-24T03:11:18.718Z,57.53
2019-01-24T03:13:44.875Z,58.02
2019-01-24T03:16:11.133Z,56.81
2019-01-24T03:18:37.684Z,55.61
2019-01-24T03:21:03.951Z,57.57
2019-01-24T03:23:30.170Z,57.95
2019-01-24T03:25:56.366Z,57.46
2019-01-24T03:28:22.540Z,56.02
2019-01-24T03:30:48.639Z,56.73
2019-01-24T03:33:14.822Z,57.95
2019-01-24T03:35:40.994Z,56.90
2019-01-24T03:38:07.185Z,56.59
2019-01-24T03:40:33.343Z,57.73
2019-01-24T03:42:59.496Z,58.47
2019-01-24T03:45:25.795Z,57.21
2019-01-24T03:47:51.958Z,57.34
2019-01-24T03:50:21.650Z,56.78
2019-01-24T03:52:48.755Z,57.00
2019-01-24T03:55:17.818Z,56.25
2019-01-24T03:57:44.032Z,56.54
2019-01-24T04:00:13.315Z,57.07
2019-01-24T04:02:39.594Z,57.17
2019-01-24T04:05:11.784Z,56.22
2019-01-24T04:07:34.059Z,56.78
2019-01-24T04:10:00.238Z,57.07
2019-01-24T04:12:26.400Z,57.25
2019-01-24T04:14:52.613Z,57.27
2019-01-24T04:17:19.844Z,57.17
2019-01-24T04:19:46.113Z,57.61
2019-01-24T04:22:12.305Z,57.05
2019-01-24T04:24:38.473Z,57.62
2019-01-24T04:27:04.641Z,56.38
2019-01-24T04:29:30.846Z,57.88
2019-01-24T04:31:57.017Z,58.24
2019-01-24T04:34:23.177Z,59.68
2019-01-24T04:36:49.380Z,59.35
2019-01-24T04:39:15.548Z,59.24
2019-01-24T04:41:41.720Z,59.67
2019-01-24T04:44:07.911Z,59.72
2019-01-24T04:46:34.076Z,58.80
2019-01-24T04:49:00.253Z,57.06
2019-01-24T04:51:26.444Z,56.73
2019-01-24T04:53:52.608Z,58.21
2019-01-24T04:56:18.784Z,58.48
2019-01-24T04:58:44.989Z,60.12
2019-01-24T05:01:11.249Z,59.44
2019-01-24T05:03:37.415Z,60.37
2019-01-24T05:06:03.607Z,60.78
2019-01-24T05:08:29.771Z,60.31
2019-01-24T05:10:55.940Z,60.71
2019-01-24T05:13:22.129Z,60.41
2019-01-24T05:15:48.410Z,60.98
2019-01-24T05:18:14.571Z,61.30
2019-01-24T05:20:40.777Z,61.40
2019-01-24T05:23:06.935Z,60.80
2019-01-24T05:25:33.201Z,60.42
2019-01-24T05:27:59.505Z,61.03
2019-01-24T05:30:25.764Z,60.50
2019-01-24T05:32:52.225Z,60.45
2019-01-24T05:35:18.418Z,60.60
2019-01-24T05:37:46.493Z,59.82
2019-01-24T05:40:12.970Z,59.65
2019-01-24T05:42:39.175Z,59.96
2019-01-24T05:45:10.977Z,60.46
2019-01-24T05:47:37.138Z,61.57
2019-01-24T05:50:06.930Z,60.93
2019-01-24T05:52:33.196Z,60.33
2019-01-24T05:54:59.359Z,60.77
2019-01-24T05:57:25.669Z,60.92
2019-01-24T05:59:51.822Z,60.96
2019-01-24T06:02:18.088Z,60.60
2019-01-24T06:04:44.290Z,60.33
2019-01-24T06:07:10.445Z,60.29
2019-01-24T06:09:36.610Z,60.13
2019-01-24T06:12:02.810Z,59.64
2019-01-24T06:14:29.075Z,58.63
2019-01-24T06:16:55.242Z,59.45
2019-01-24T06:19:21.800Z,58.78
2019-01-24T06:21:47.966Z,59.26
2019-01-24T06:24:14.221Z,58.71
2019-01-24T06:26:40.423Z,58.53
2019-01-24T06:29:06.585Z,58.39
2019-01-24T06:31:32.770Z,58.14
2019-01-24T06:33:59.065Z,58.44
2019-01-24T06:36:25.232Z,58.18
2019-01-24T06:38:51.387Z,58.48
2019-01-24T06:41:17.584Z,57.50
2019-01-24T06:43:43.861Z,57.58
2019-01-24T06:46:10.026Z,58.19
2019-01-24T06:48:36.218Z,57.56
2019-01-24T06:51:02.398Z,56.93
2019-01-24T06:53:28.666Z,57.28
2019-01-24T06:55:54.872Z,58.21
2019-01-24T06:58:21.038Z,58.29
2019-01-24T07:00:47.307Z,58.11
2019-01-24T07:03:13.614Z,57.73
2019-01-24T07:05:39.803Z,57.22
2019-01-24T07:08:06.073Z,58.45
2019-01-24T07:10:32.641Z,57.68
2019-01-24T07:12:58.762Z,57.36
2019-01-24T07:15:24.925Z,56.96
2019-01-24T07:17:51.620Z,56.01
2019-01-24T07:20:19.590Z,56.06
2019-01-24T07:22:45.759Z,57.33
2019-01-24T07:25:15.354Z,56.56
2019-01-24T07:27:41.517Z,56.89
2019-01-24T07:30:10.887Z,56.10
2019-01-24T07:32:37.087Z,54.93
2019-01-24T07:35:06.855Z,53.60
2019-01-24T07:37:33.015Z,54.44
2019-01-24T07:39:59.212Z,53.29
2019-01-24T07:42:25.379Z,53.71
2019-01-24T07:44:51.539Z,53.98
2019-01-24T07:47:17.736Z,54.73
2019-01-24T07:49:43.908Z,54.47
2019-01-24T07:52:10.074Z,55.66
2019-01-24T07:54:36.282Z,56.10
2019-01-24T07:57:02.544Z,55.13
2019-01-24T07:59:28.703Z,55.06
2019-01-24T08:01:54.903Z,54.53
2019-01-24T08:04:21.074Z,54.28
2019-01-24T08:06:47.270Z,55.55
2019-01-24T08:09:13.573Z,54.05
2019-01-24T08:11:39.743Z,53.48
2019-01-24T08:14:05.911Z,53.59
2019-01-24T08:16:32.099Z,54.05
2019-01-24T08:18:58.270Z,53.89
2019-01-24T08:21:24.470Z,53.68
2019-01-24T08:23:50.662Z,52.70
2019-01-24T08:26:16.920Z,52.81
2019-01-24T08:28:43.090Z,51.80
2019-01-24T08:31:09.306Z,51.45
2019-01-24T08:33:35.567Z,50.64
2019-01-24T08:36:01.724Z,49.35
2019-01-24T08:38:28.031Z,49.40
2019-01-24T08:40:54.307Z,49.05
2019-01-24T08:43:23.362Z,49.12
2019-01-24T08:45:49.553Z,48.98
2019-01-24T08:48:15.706Z,48.88
2019-01-24T08:50:41.880Z,47.87
2019-01-24T08:53:08.069Z,49.72
2019-01-24T08:55:36.337Z,48.72
2019-01-24T08:58:03.389Z,48.85
2019-01-24T09:00:29.595Z,48.99
2019-01-24T09:02:56.264Z,48.86
2019-01-24T09:05:22.533Z,50.65
2019-01-24T09:07:48.943Z,49.19
2019-01-24T09:10:24.928Z,48.06
2019-01-24T09:12:51.218Z,47.85
2019-01-24T09:15:17.503Z,50.31
2019-01-24T09:17:43.637Z,48.89
2019-01-24T09:20:15.902Z,48.26
2019-01-24T09:22:42.183Z,48.86
2019-01-24T09:25:09.339Z,48.97
2019-01-24T09:27:35.516Z,47.30
2019-01-24T09:30:03.085Z,48.18
2019-01-24T09:32:29.235Z,46.98
2019-01-24T09:34:55.417Z,47.85
2019-01-24T09:37:21.584Z,47.51
2019-01-24T09:39:47.862Z,47.08
2019-01-24T09:42:14.704Z,47.28
2019-01-24T09:44:40.953Z,48.61
2019-01-24T09:47:07.112Z,48.16
2019-01-24T09:49:33.295Z,47.61
2019-01-24T09:51:59.467Z,47.31
2019-01-24T09:54:25.976Z,48.09
2019-01-24T09:56:52.170Z,48.75
2019-01-24T09:59:18.337Z,49.30
2019-01-24T10:01:45.594Z,49.39
2019-01-24T10:04:12.134Z,50.71
2019-01-24T10:06:38.384Z,51.28
2019-01-24T10:09:05.738Z,49.51
2019-01-24T10:11:31.945Z,50.09
2019-01-24T10:13:58.106Z,51.03
2019-01-24T10:16:24.382Z,51.32
2019-01-24T10:18:51.127Z,51.11
2019-01-24T10:21:17.282Z,50.97
2019-01-24T10:23:43.596Z,50.43
2019-01-24T10:26:09.791Z,49.34
2019-01-24T10:28:35.940Z,49.26
2019-01-24T10:31:02.197Z,49.99
2019-01-24T10:33:28.391Z,51.82
2019-01-24T10:35:54.651Z,54.35
2019-01-24T10:38:20.804Z,53.84
2019-01-24T10:40:47.083Z,54.96
2019-01-24T10:43:13.238Z,56.69
2019-01-24T10:45:45.768Z,57.83
2019-01-24T10:48:11.952Z,55.37
2019-01-24T10:50:38.136Z,53.99
2019-01-24T10:53:04.428Z,55.12
2019-01-24T10:55:30.596Z,55.40
2019-01-24T10:57:58.483Z,54.77
2019-01-24T11:00:27.643Z,54.67
2019-01-24T11:02:53.932Z,53.84
2019-01-24T11:05:20.101Z,54.33
2019-01-24T11:07:46.982Z,53.51
2019-01-24T11:10:16.272Z,53.85
2019-01-24T11:12:42.446Z,55.03
2019-01-24T11:15:17.020Z,55.96
2019-01-24T11:17:43.214Z,54.37
2019-01-24T11:20:12.479Z,55.15
2019-01-24T11:22:38.637Z,54.51
2019-01-24T11:25:09.319Z,53.83
2019-01-24T11:27:35.645Z,50.68
2019-01-24T11:30:03.899Z,50.59
2019-01-24T11:32:30.079Z,50.73
2019-01-24T11:34:56.227Z,51.04
2019-01-24T11:37:22.385Z,50.46
2019-01-24T11:39:48.685Z,49.83
2019-01-24T11:42:14.849Z,49.16
2019-01-24T11:44:41.039Z,50.99
2019-01-24T11:47:07.245Z,50.05
2019-01-24T11:49:33.393Z,50.96
2019-01-24T11:51:59.552Z,51.21
2019-01-24T11:54:25.741Z,49.90
2019-01-24T11:56:51.993Z,52.33
2019-01-24T11:59:18.156Z,54.63
2019-01-24T12:01:44.469Z,54.72
2019-01-24T12:04:10.641Z,55.02
2019-01-24T12:06:36.810Z,54.65
2019-01-24T12:09:06.055Z,54.34
2019-01-24T12:11:32.211Z,54.79
2019-01-24T12:13:58.395Z,55.75
2019-01-24T12:16:24.600Z,56.51
2019-01-24T12:18:50.808Z,56.91
2019-01-24T12:21:24.428Z,58.76
2019-01-24T12:23:50.627Z,59.31
2019-01-24T12:26:16.840Z,57.76
2019-01-24T12:28:43.113Z,57.69
2019-01-24T12:31:09.304Z,56.91
2019-01-24T12:33:35.674Z,56.69
2019-01-24T12:36:01.817Z,56.96
2019-01-24T12:38:27.995Z,57.00
2019-01-24T12:40:54.190Z,56.95
2019-01-24T12:43:23.241Z,56.53
2019-01-24T12:45:49.538Z,56.79
2019-01-24T12:48:15.694Z,56.36
2019-01-24T12:50:41.864Z,56.24
2019-01-24T12:53:08.063Z,55.96
2019-01-24T12:55:34.227Z,54.14
2019-01-24T12:58:00.391Z,54.17
2019-01-24T13:00:29.689Z,53.05
2019-01-24T13:02:55.940Z,54.32
2019-01-24T13:05:22.213Z,54.49
2019-01-24T13:07:48.519Z,54.07
2019-01-24T13:10:17.377Z,53.22
2019-01-24T13:12:43.659Z,54.83
2019-01-24T13:15:15.860Z,61.59
2019-01-24T13:17:42.019Z,64.39
2019-01-24T13:20:10.876Z,67.73
2019-01-24T13:22:37.059Z,68.28
2019-01-24T13:25:09.346Z,67.77
2019-01-24T13:27:35.563Z,67.61
2019-01-24T13:30:02.126Z,67.99
2019-01-24T13:32:28.460Z,68.43
2019-01-24T13:34:54.628Z,67.71
2019-01-24T13:37:25.736Z,67.49
2019-01-24T13:39:48.897Z,68.76
2019-01-24T13:42:15.161Z,69.81
2019-01-24T13:44:41.358Z,72.02
2019-01-24T13:47:07.517Z,72.13
2019-01-24T13:49:33.776Z,73.71
2019-01-24T13:52:00.126Z,76.19
2019-01-24T13:54:26.473Z,78.04
2019-01-24T13:56:52.673Z,79.06
2019-01-24T13:59:19.115Z,78.30
2019-01-24T14:01:45.265Z,78.81
2019-01-24T14:04:13.230Z,79.44
2019-01-24T14:06:39.489Z,79.37
2019-01-24T14:09:07.735Z,79.84
2019-01-24T14:11:33.896Z,79.84
2019-01-24T14:14:00.080Z,79.93
2019-01-24T14:16:26.235Z,78.24
2019-01-24T14:18:52.398Z,78.59
2019-01-24T14:21:18.692Z,77.44
2019-01-24T14:23:44.948Z,77.42
2019-01-24T14:26:11.103Z,77.84
2019-01-24T14:28:37.340Z,78.12
2019-01-24T14:31:03.795Z,77.88
2019-01-24T14:33:29.948Z,78.42
2019-01-24T14:35:58.420Z,77.96
2019-01-24T14:38:24.579Z,77.91
2019-01-24T14:40:50.748Z,77.41
2019-01-24T14:43:16.919Z,77.47
2019-01-24T14:45:43.185Z,78.00
2019-01-24T14:48:09.454Z,77.25
2019-01-24T14:50:35.648Z,78.14
2019-01-24T14:53:01.803Z,77.82
2019-01-24T14:55:28.062Z,78.39
2019-01-24T14:57:54.254Z,79.05
2019-01-24T15:00:32.901Z,79.06
2019-01-24T15:02:59.088Z,79.02
2019-01-24T15:05:25.540Z,78.93
2019-01-24T15:07:51.692Z,79.44
2019-01-24T15:10:17.878Z,78.99
2019-01-24T15:12:44.036Z,79.00
2019-01-24T15:15:14.723Z,78.47
2019-01-24T15:17:41.007Z,78.61
2019-01-24T15:20:12.503Z,79.51
2019-01-24T15:22:39.003Z,79.37
2019-01-24T15:25:08.489Z,79.80
2019-01-24T15:27:34.648Z,79.25
2019-01-24T15:30:00.863Z,79.39
2019-01-24T15:32:27.144Z,79.07
2019-01-24T15:34:53.352Z,79.96
2019-01-24T15:37:19.621Z,79.94
2019-01-24T15:39:46.044Z,79.43
2019-01-24T15:42:12.352Z,80.06
2019-01-24T15:44:38.535Z,79.22
2019-01-24T15:47:05.528Z,79.15
2019-01-24T15:49:31.851Z,79.71
2019-01-24T15:51:58.079Z,79.72
2019-01-24T15:54:24.262Z,79.73
2019-01-24T15:56:50.529Z,79.58
2019-01-24T15:59:16.757Z,79.51
2019-01-24T16:01:42.965Z,78.82
2019-01-24T16:04:09.224Z,79.48
2019-01-24T16:06:35.387Z,78.91
2019-01-24T16:09:01.578Z,79.14
2019-01-24T16:11:27.728Z,79.18
2019-01-24T16:13:53.890Z,79.22
2019-01-24T16:16:20.079Z,79.22
2019-01-24T16:18:46.369Z,79.05
2019-01-24T16:21:12.514Z,78.29
2019-01-24T16:23:38.699Z,78.63
2019-01-24T16:26:05.262Z,78.20
2019-01-24T16:28:31.420Z,79.26
2019-01-24T16:30:57.782Z,79.08
2019-01-24T16:33:23.932Z,78.64
2019-01-24T16:35:50.090Z,78.88
2019-01-24T16:38:16.278Z,79.26
2019-01-24T16:40:42.419Z,78.93
2019-01-24T16:43:08.675Z,78.43
2019-01-24T16:45:34.871Z,78.11
2019-01-24T16:48:01.010Z,78.41
2019-01-24T16:50:27.266Z,77.87
2019-01-24T16:52:53.452Z,77.96
2019-01-24T16:55:19.698Z,77.77
2019-01-24T16:57:46.954Z,77.66
2019-01-24T17:00:35.263Z,77.77
2019-01-24T17:03:01.442Z,76.79
2019-01-24T17:05:27.733Z,77.86
2019-01-24T17:07:54.026Z,77.56
2019-01-24T17:10:22.279Z,77.39
2019-01-24T17:12:48.434Z,77.34
2019-01-24T17:15:16.926Z,77.32
2019-01-24T17:17:43.116Z,77.49
2019-01-24T17:20:15.694Z,77.29
2019-01-24T17:22:41.979Z,77.28
2019-01-24T17:25:10.933Z,77.79
2019-01-24T17:27:37.088Z,77.52
2019-01-24T17:30:09.657Z,77.19
2019-01-24T17:32:35.922Z,76.95
2019-01-24T17:35:03.379Z,77.45
2019-01-24T17:37:29.675Z,77.63
2019-01-24T17:39:56.234Z,76.93
2019-01-24T17:42:22.475Z,76.53
2019-01-24T17:44:48.730Z,76.59
2019-01-24T17:47:14.968Z,76.84
2019-01-24T17:49:41.120Z,76.62
2019-01-24T17:52:07.412Z,76.71
2019-01-24T17:54:33.675Z,76.08
2019-01-24T17:56:59.865Z,76.67
2019-01-24T17:59:26.048Z,76.92
2019-01-24T18:01:52.292Z,76.75
2019-01-24T18:04:21.777Z,75.77
2019-01-24T18:06:46.530Z,76.59
2019-01-24T18:09:12.806Z,75.97
2019-01-24T18:11:39.323Z,75.48
2019-01-24T18:14:05.630Z,76.10
2019-01-24T18:16:31.900Z,75.38
2019-01-24T18:18:58.066Z,74.84
2019-01-24T18:21:24.265Z,75.83
2019-01-24T18:23:50.762Z,75.44
2019-01-24T18:26:17.060Z,75.33
2019-01-24T18:28:43.264Z,76.29
2019-01-24T18:31:09.436Z,75.34
2019-01-24T18:33:35.645Z,73.97
2019-01-24T18:36:01.932Z,74.20
2019-01-24T18:38:28.099Z,73.55
2019-01-24T18:40:54.256Z,74.36
2019-01-24T18:43:20.440Z,74.67
2019-01-24T18:45:52.187Z,74.73
2019-01-24T18:48:18.358Z,75.11
2019-01-24T18:50:45.262Z,74.79
2019-01-24T18:53:11.561Z,74.81
2019-01-24T18:55:37.711Z,75.27
2019-01-24T18:58:04.396Z,74.10
2019-01-24T19:00:32.551Z,73.75
2019-01-24T19:02:58.708Z,73.87
2019-01-24T19:05:24.894Z,73.32
2019-01-24T19:07:51.048Z,73.89
2019-01-24T19:10:17.300Z,73.50
2019-01-24T19:12:43.593Z,74.07
2019-01-24T19:15:16.652Z,74.76
2019-01-24T19:17:43.198Z,74.41
2019-01-24T19:20:11.290Z,75.56
2019-01-24T19:22:37.447Z,74.53
2019-01-24T19:25:07.205Z,73.79
2019-01-24T19:27:33.387Z,73.26
2019-01-24T19:29:59.542Z,73.10
2019-01-24T19:32:25.694Z,73.36
2019-01-24T19:34:51.886Z,73.30
2019-01-24T19:37:18.034Z,73.45
2019-01-24T19:39:44.186Z,72.90
2019-01-24T19:42:10.379Z,73.24
2019-01-24T19:44:36.541Z,73.12
2019-01-24T19:47:02.813Z,72.78
2019-01-24T19:49:29.001Z,72.31
2019-01-24T19:51:55.152Z,72.28
2019-01-24T19:54:21.803Z,73.84
2019-01-24T19:56:47.987Z,73.48
2019-01-24T19:59:14.143Z,73.16
2019-01-24T20:01:40.298Z,73.55
2019-01-24T20:04:06.486Z,73.19
2019-01-24T20:06:32.640Z,72.62
2019-01-24T20:09:00.316Z,72.33
2019-01-24T20:11:26.845Z,72.33
2019-01-24T20:13:53.007Z,72.58
2019-01-24T20:16:19.272Z,73.04
2019-01-24T20:18:45.619Z,72.65
2019-01-24T20:21:11.904Z,72.07
2019-01-24T20:23:38.052Z,71.78
2019-01-24T20:26:04.335Z,71.53
2019-01-24T20:28:30.654Z,72.40
2019-01-24T20:30:57.051Z,72.47
2019-01-24T20:33:23.363Z,72.15
2019-01-24T20:35:51.473Z,72.60
2019-01-24T20:38:17.789Z,72.93
2019-01-24T20:40:44.085Z,72.90
2019-01-24T20:43:11.641Z,73.49
2019-01-24T20:45:38.523Z,73.36
2019-01-24T20:48:04.714Z,73.63
2019-01-24T20:50:30.882Z,73.65
2019-01-24T20:52:57.039Z,74.51
2019-01-24T20:55:23.432Z,73.78
2019-01-24T20:57:49.594Z,72.72
2019-01-24T21:00:21.411Z,73.06
2019-01-24T21:02:47.601Z,73.06
2019-01-24T21:05:19.616Z,74.06
2019-01-24T21:07:45.811Z,73.59
2019-01-24T21:10:20.999Z,74.01
2019-01-24T21:12:47.163Z,74.26
2019-01-24T21:15:15.515Z,74.74
2019-01-24T21:17:41.806Z,74.18
2019-01-24T21:20:11.371Z,73.56
2019-01-24T21:22:37.628Z,74.04
2019-01-24T21:25:07.619Z,73.85
2019-01-24T21:27:34.899Z,73.82
2019-01-24T21:30:01.067Z,73.08
2019-01-24T21:32:27.366Z,73.71
2019-01-24T21:34:53.531Z,74.05
2019-01-24T21:37:20.545Z,74.75
2019-01-24T21:39:46.726Z,75.10
2019-01-24T21:42:12.893Z,75.85
2019-01-24T21:44:39.462Z,75.30
2019-01-24T21:47:05.630Z,74.08
2019-01-24T21:49:31.785Z,74.17
2019-01-24T21:51:57.945Z,73.95
2019-01-24T21:54:24.244Z,73.78
2019-01-24T21:56:50.396Z,73.71
2019-01-24T21:59:16.547Z,73.13
2019-01-24T22:01:42.731Z,72.37
2019-01-24T22:04:08.878Z,73.30
2019-01-24T22:06:35.028Z,74.23
2019-01-24T22:09:01.306Z,74.35
2019-01-24T22:11:27.507Z,74.03
2019-01-24T22:13:53.972Z,75.21
2019-01-24T22:16:20.267Z,75.16
2019-01-24T22:18:46.411Z,76.09
2019-01-24T22:21:12.575Z,74.93
2019-01-24T22:23:38.775Z,74.71
2019-01-24T22:26:05.131Z,75.49
2019-01-24T22:28:31.296Z,75.78
2019-01-24T22:30:58.280Z,75.30
2019-01-24T22:33:24.434Z,75.09
2019-01-24T22:35:50.601Z,74.64
2019-01-24T22:38:16.805Z,74.40
2019-01-24T22:40:42.964Z,74.38
2019-01-24T22:43:09.134Z,73.53
2019-01-24T22:45:35.339Z,72.69
2019-01-24T22:48:01.502Z,73.28
2019-01-24T22:50:27.671Z,73.96
2019-01-24T22:52:53.861Z,74.54
2019-01-24T22:55:20.022Z,74.75
2019-01-24T22:57:46.179Z,74.92
2019-01-24T23:00:49.381Z,74.04
2019-01-24T23:03:22.027Z,74.41
2019-01-24T23:05:48.289Z,74.96
2019-01-24T23:08:14.485Z,74.00
2019-01-24T23:10:40.642Z,74.25
2019-01-24T23:13:06.798Z,74.33
2019-01-24T23:15:33.098Z,73.87
2019-01-24T23:17:59.361Z,72.94
2019-01-24T23:20:25.520Z,74.11
2019-01-24T23:22:51.928Z,73.86
2019-01-24T23:25:18.088Z,73.28
2019-01-24T23:27:45.143Z,72.69
2019-01-24T23:30:11.954Z,72.58
2019-01-24T23:32:38.109Z,72.69
2019-01-24T23:35:05.464Z,73.22
2019-01-24T23:37:31.662Z,74.72
2019-01-24T23:39:57.864Z,74.36
2019-01-24T23:42:24.024Z,74.80
2019-01-24T23:44:50.201Z,75.45
2019-01-24T23:47:16.360Z,75.33
2019-01-24T23:49:42.521Z,74.89
2019-01-24T23:52:08.813Z,73.81
2019-01-24T23:54:35.072Z,73.95
2019-01-24T23:57:01.238Z,73.62
2019-01-24T23:59:28.934Z,74.43
